Time;durP1;ratioP1;P1;durP2;ratioP2;P2;SDS_P1;SDS_P2;PMS_P1;PMS_P2;Temp;Humidity;BMP_temperature;BMP_pressure;BME280_temperature;BME280_humidity;BME280_pressure;Samples;Min_cycle;Max_cycle;Signal;HPM_P1;HPM_P2
2021/01/15 00:01:24;;;;;;;14.20;9.27;;;-4.10;85.10;;;;;;5038088;28;20267;-81
2021/01/15 00:03:52;;;;;;;15.17;9.17;;;-4.20;85.40;;;;;;5042966;28;20835;-81
2021/01/15 00:06:24;;;;;;;15.97;9.17;;;-4.30;85.10;;;;;;5050345;28;20452;-79
2021/01/15 00:08:53;;;;;;;10.67;6.43;;;-4.40;84.70;;;;;;5048319;28;20731;-79
2021/01/15 00:11:22;;;;;;;16.10;9.03;;;-4.60;84.50;;;;;;5050327;28;20541;-80
2021/01/15 00:13:50;;;;;;;16.57;9.47;;;-4.70;84.60;;;;;;5050235;28;20473;-82
2021/01/15 00:16:30;;;;;;;16.33;7.90;;;-4.70;84.50;;;;;;5046247;28;20565;-80
2021/01/15 00:18:59;;;;;;;16.27;9.00;;;-4.90;84.60;;;;;;5058079;28;20460;-81
2021/01/15 00:21:29;;;;;;;13.10;7.37;;;-4.90;84.30;;;;;;5053876;28;20461;-81
2021/01/15 00:23:59;;;;;;;14.83;9.73;;;-5.00;83.60;;;;;;5048862;28;20443;-81
2021/01/15 00:26:29;;;;;;;14.57;9.10;;;-5.10;83.60;;;;;;5054101;28;20462;-82
2021/01/15 00:28:57;;;;;;;17.77;9.37;;;-5.20;83.90;;;;;;5036087;28;20540;-79
2021/01/15 00:31:30;;;;;;;16.63;9.53;;;-5.20;84.30;;;;;;5041184;28;20468;-81
2021/01/15 00:33:58;;;;;;;12.47;8.33;;;-5.30;84.60;;;;;;5031836;28;20648;-82
2021/01/15 00:36:28;;;;;;;16.20;9.70;;;-5.40;84.60;;;;;;5033407;28;20527;-79
2021/01/15 00:38:56;;;;;;;16.33;9.87;;;-5.50;84.60;;;;;;5038293;28;20545;-82
2021/01/15 00:41:24;;;;;;;9.30;6.80;;;-5.40;84.50;;;;;;5050534;28;20461;-81
2021/01/15 00:43:51;;;;;;;14.37;7.93;;;-5.60;84.10;;;;;;5035120;28;20955;-81
2021/01/15 00:46:31;;;;;;;18.93;10.30;;;-5.70;84.10;;;;;;5032592;28;20486;-80
2021/01/15 00:49:02;;;;;;;14.63;8.87;;;-5.70;84.40;;;;;;5025752;28;20497;-81
2021/01/15 00:51:31;;;;;;;11.43;7.73;;;-5.80;84.80;;;;;;5029979;28;20617;-81
2021/01/15 00:53:59;;;;;;;16.60;10.10;;;-5.80;84.80;;;;;;5029107;28;20531;-81
2021/01/15 00:56:28;;;;;;;14.03;7.63;;;-5.90;84.30;;;;;;5045631;28;20460;-80
2021/01/15 00:58:55;;;;;;;16.83;9.77;;;-6.00;84.00;;;;;;5045190;28;20444;-80
2021/01/15 01:01:24;;;;;;;16.00;10.37;;;-6.00;84.50;;;;;;5030898;28;20476;-80
2021/01/15 01:03:53;;;;;;;14.20;8.53;;;-6.10;84.40;;;;;;5045289;28;21077;-81
2021/01/15 01:06:22;;;;;;;18.17;9.13;;;-6.20;84.80;;;;;;5044271;28;21076;-82
2021/01/15 01:08:51;;;;;;;10.90;6.30;;;-6.20;84.90;;;;;;5013500;28;21055;-80
2021/01/15 01:11:20;;;;;;;12.37;7.10;;;-6.20;84.80;;;;;;5019268;28;20462;-80
2021/01/15 01:13:49;;;;;;;14.73;8.40;;;-6.00;84.90;;;;;;5039071;28;20906;-80
2021/01/15 01:16:18;;;;;;;16.27;8.80;;;-6.30;85.10;;;;;;5028967;28;20603;-81
2021/01/15 01:18:46;;;;;;;15.27;8.77;;;-6.40;85.10;;;;;;5036905;28;20448;-80
2021/01/15 01:21:15;;;;;;;16.10;9.33;;;-6.40;85.60;;;;;;5018550;28;20487;-81
2021/01/15 01:23:43;;;;;;;15.33;9.07;;;-6.50;85.60;;;;;;5016743;28;20488;-81
2021/01/15 01:26:12;;;;;;;16.43;8.93;;;-6.60;85.70;;;;;;5031854;28;20783;-85
2021/01/15 01:28:42;;;;;;;16.47;8.47;;;-6.50;85.90;;;;;;5026091;28;21077;-82
2021/01/15 01:31:10;;;;;;;14.90;8.77;;;-6.60;85.90;;;;;;5028412;28;20460;-83
2021/01/15 01:33:40;;;;;;;12.43;7.27;;;-6.60;85.60;;;;;;5029983;28;20453;-81
2021/01/15 01:36:08;;;;;;;14.80;8.80;;;-6.60;85.60;;;;;;5035191;28;20465;-79
2021/01/15 01:38:37;;;;;;;13.30;7.63;;;-6.60;85.50;;;;;;5023093;28;20543;-80
2021/01/15 01:41:05;;;;;;;9.90;6.00;;;-6.60;85.50;;;;;;5033508;28;20621;-82
2021/01/15 01:43:34;;;;;;;14.23;8.80;;;-6.70;85.40;;;;;;5024570;28;20966;-81
2021/01/15 01:46:04;;;;;;;13.00;8.27;;;-6.70;85.60;;;;;;5031873;28;20456;-81
2021/01/15 01:48:32;;;;;;;8.67;6.03;;;-6.70;86.00;;;;;;5021824;28;20481;-80
2021/01/15 01:51:03;;;;;;;12.90;7.87;;;-6.70;85.60;;;;;;5023598;28;20960;-81
2021/01/15 01:53:31;;;;;;;16.00;8.83;;;-6.60;85.40;;;;;;5025298;28;21390;-80
2021/01/15 01:56:02;;;;;;;14.40;8.23;;;-6.60;85.60;;;;;;5027724;28;21038;-81
2021/01/15 01:58:31;;;;;;;13.87;7.70;;;-6.60;85.80;;;;;;5015335;28;20572;-81
2021/01/15 02:01:02;;;;;;;14.43;8.63;;;-6.50;86.10;;;;;;5032921;28;20483;-81
2021/01/15 02:03:30;;;;;;;12.67;7.97;;;-6.50;86.00;;;;;;5016538;28;21242;-81
2021/01/15 02:05:58;;;;;;;13.20;8.43;;;-6.50;85.90;;;;;;5055846;28;20452;-80
2021/01/15 02:08:27;;;;;;;14.30;8.07;;;-6.30;86.00;;;;;;5040109;28;21025;-82
2021/01/15 02:11:05;;;;;;;14.43;8.77;;;-6.40;86.30;;;;;;5024542;28;20468;-81
2021/01/15 02:13:41;;;;;;;16.47;9.13;;;-6.40;86.50;;;;;;5023062;28;20448;-81
2021/01/15 02:16:16;;;;;;;10.27;5.97;;;-6.30;86.20;;;;;;5027827;28;20471;-81
2021/01/15 02:18:49;;;;;;;13.00;8.43;;;-6.30;85.70;;;;;;5035874;28;20567;-81
2021/01/15 02:21:53;;;;;;;13.53;8.33;;;-6.20;85.60;;;;;;5027224;28;20531;-81
2021/01/15 02:24:32;;;;;;;15.87;8.43;;;-6.20;85.70;;;;;;5041165;28;20480;-81
2021/01/15 02:27:51;;;;;;;9.27;5.40;;;-6.10;85.60;;;;;;5024093;28;21007;-81
2021/01/15 02:30:34;;;;;;;14.87;9.07;;;-6.00;85.40;;;;;;5034013;28;20492;-80
2021/01/15 02:33:13;;;;;;;16.20;9.17;;;-6.00;85.30;;;;;;5031056;28;20688;-80
2021/01/15 02:35:49;;;;;;;17.10;9.57;;;-6.00;85.30;;;;;;5029999;28;20465;-79
2021/01/15 02:38:25;;;;;;;18.80;9.87;;;-5.90;85.70;;;;;;5035070;28;20858;-81
2021/01/15 02:41:16;;;;;;;19.00;9.47;;;-5.90;85.80;;;;;;5036071;28;20624;-81
2021/01/15 02:43:49;;;;;;;17.63;10.20;;;-5.90;85.50;;;;;;5036453;28;20901;-81
2021/01/15 02:46:22;;;;;;;22.87;10.83;;;-5.90;85.30;;;;;;5029437;28;20553;-80
2021/01/15 02:48:53;;;;;;;16.67;10.20;;;-6.00;85.40;;;;;;5042225;28;21002;-80
2021/01/15 02:51:21;;;;;;;17.93;10.73;;;-5.90;85.70;;;;;;5024298;28;20469;-81
2021/01/15 02:53:49;;;;;;;18.47;11.07;;;-5.90;85.60;;;;;;5028830;28;20511;-80
2021/01/15 02:56:17;;;;;;;19.70;10.83;;;-5.90;85.70;;;;;;5029381;28;20533;-81
2021/01/15 02:58:48;;;;;;;19.43;11.03;;;-5.80;86.00;;;;;;5044828;28;20456;-81
2021/01/15 03:01:15;;;;;;;19.17;11.63;;;-5.80;85.50;;;;;;5043866;28;20997;-82
2021/01/15 03:03:50;;;;;;;9.33;5.73;;;-5.80;85.30;;;;;;5026228;28;20472;-82
2021/01/15 03:06:29;;;;;;;17.50;10.67;;;-5.80;84.90;;;;;;5035206;28;20978;-82
2021/01/15 03:08:58;;;;;;;23.50;11.37;;;-5.80;85.10;;;;;;5043818;28;20862;-80
2021/01/15 03:11:27;;;;;;;20.70;11.60;;;-5.90;85.00;;;;;;5026183;28;20464;-81
2021/01/15 03:13:55;;;;;;;17.20;10.50;;;-5.90;85.10;;;;;;5033149;28;20957;-81
2021/01/15 03:16:24;;;;;;;19.83;10.73;;;-6.00;85.20;;;;;;5020862;28;20469;-81
2021/01/15 03:18:55;;;;;;;20.17;11.00;;;-6.00;85.00;;;;;;5030737;28;20683;-81
2021/01/15 03:21:26;;;;;;;19.33;11.27;;;-6.00;85.00;;;;;;5026317;28;20483;-81
2021/01/15 03:23:54;;;;;;;17.87;9.93;;;-5.90;85.50;;;;;;5027490;28;20464;-81
2021/01/15 03:26:22;;;;;;;18.73;11.70;;;-5.90;85.30;;;;;;5033705;28;20461;-80
2021/01/15 03:28:51;;;;;;;17.40;10.67;;;-6.00;84.90;;;;;;5030610;28;20982;-81
2021/01/15 03:31:18;;;;;;;19.70;10.50;;;-6.00;84.80;;;;;;5031803;28;20491;-80
2021/01/15 03:33:46;;;;;;;19.03;10.23;;;-6.00;84.60;;;;;;5026487;28;20453;-81
2021/01/15 03:36:13;;;;;;;19.33;10.90;;;-5.90;84.80;;;;;;5028485;28;20470;-82
2021/01/15 03:38:42;;;;;;;21.27;11.33;;;-5.90;84.60;;;;;;5022123;28;20476;-80
2021/01/15 03:41:09;;;;;;;17.43;11.60;;;-5.80;84.70;;;;;;5026337;28;20458;-79
2021/01/15 03:43:37;;;;;;;18.00;12.50;;;-5.80;84.90;;;;;;5021382;28;20576;-82
2021/01/15 03:46:05;;;;;;;22.00;13.23;;;-5.80;85.00;;;;;;5025413;28;21003;-80
2021/01/15 03:48:32;;;;;;;17.90;11.87;;;-5.70;84.70;;;;;;5035963;28;20459;-81
2021/01/15 03:51:02;;;;;;;18.73;10.47;;;-5.70;84.70;;;;;;5043260;28;20469;-81
2021/01/15 03:53:30;;;;;;;20.33;11.50;;;-5.70;84.60;;;;;;5049715;28;20864;-80
2021/01/15 03:55:59;;;;;;;16.30;10.27;;;-5.70;84.50;;;;;;5050046;28;20460;-80
2021/01/15 03:58:27;;;;;;;18.53;10.23;;;-5.70;84.70;;;;;;5015433;28;21092;-82
2021/01/15 04:00:55;;;;;;;16.03;10.57;;;-5.70;84.70;;;;;;5021006;28;20465;-79
2021/01/15 04:03:24;;;;;;;18.47;9.87;;;-5.70;84.70;;;;;;5015316;28;20476;-79
2021/01/15 04:05:51;;;;;;;13.50;9.47;;;-5.60;84.80;;;;;;5016644;28;20589;-80
2021/01/15 04:08:19;;;;;;;17.03;9.20;;;-5.60;85.10;;;;;;5022786;28;20470;-82
2021/01/15 04:10:46;;;;;;;16.90;8.53;;;-5.60;85.00;;;;;;5025075;28;20517;-78
2021/01/15 04:13:14;;;;;;;15.60;8.60;;;-5.60;84.60;;;;;;5024993;28;20563;-82
2021/01/15 04:15:42;;;;;;;13.30;8.07;;;-5.60;84.50;;;;;;5023828;28;20752;-80
2021/01/15 04:18:10;;;;;;;11.77;6.60;;;-5.60;84.80;;;;;;5029210;28;21091;-81
2021/01/15 04:20:37;;;;;;;14.80;8.90;;;-5.70;84.50;;;;;;5030140;28;21044;-80
2021/01/15 04:23:05;;;;;;;15.10;8.50;;;-5.50;84.60;;;;;;5029838;28;20825;-80
2021/01/15 04:25:33;;;;;;;13.50;7.83;;;-5.60;84.40;;;;;;5023382;28;20715;-82
2021/01/15 04:28:02;;;;;;;14.00;8.03;;;-5.60;84.40;;;;;;5032252;28;20461;-81
2021/01/15 04:30:33;;;;;;;17.67;8.87;;;-5.60;84.50;;;;;;5024062;28;21104;-81
2021/01/15 04:33:01;;;;;;;17.03;8.37;;;-5.70;84.70;;;;;;5033351;28;20881;-81
2021/01/15 04:35:28;;;;;;;13.57;7.63;;;-5.70;85.00;;;;;;5019565;28;20469;-80
2021/01/15 04:37:56;;;;;;;13.93;7.67;;;-5.70;84.80;;;;;;5019068;28;20551;-81
2021/01/15 04:40:24;;;;;;;14.30;7.50;;;-5.70;84.80;;;;;;5036345;28;20450;-81
2021/01/15 04:43:00;;;;;;;16.70;8.23;;;-5.80;84.90;;;;;;5016924;28;20472;-80
2021/01/15 04:45:28;;;;;;;13.00;8.27;;;-5.80;84.80;;;;;;5025901;28;20591;-82
2021/01/15 04:48:03;;;;;;;15.20;8.50;;;-5.70;85.00;;;;;;5032321;28;20465;-81
2021/01/15 04:50:32;;;;;;;13.23;7.67;;;-5.70;85.20;;;;;;5028837;28;20648;-82
2021/01/15 04:53:04;;;;;;;15.77;8.27;;;-5.70;85.30;;;;;;5032698;28;20495;-81
2021/01/15 04:55:36;;;;;;;18.17;9.07;;;-5.70;85.20;;;;;;5029812;28;20469;-81
2021/01/15 04:58:06;;;;;;;16.80;9.00;;;-5.70;85.40;;;;;;5024310;28;20998;-80
2021/01/15 05:00:36;;;;;;;16.67;9.47;;;-5.70;85.70;;;;;;5038682;28;20453;-81
2021/01/15 05:03:05;;;;;;;14.87;8.17;;;-5.70;85.60;;;;;;5036363;28;20480;-81
2021/01/15 05:05:44;;;;;;;13.47;8.57;;;-5.70;85.30;;;;;;5027453;28;20895;-79
2021/01/15 05:08:13;;;;;;;14.33;7.97;;;-5.60;85.30;;;;;;5012963;28;20483;-81
2021/01/15 05:10:44;;;;;;;13.43;8.20;;;-5.60;85.30;;;;;;5046981;28;20520;-81
2021/01/15 05:13:14;;;;;;;13.60;8.17;;;-5.60;84.70;;;;;;5044580;28;20460;-81
2021/01/15 05:15:44;;;;;;;13.50;8.57;;;-5.60;84.80;;;;;;5061220;28;20436;-81
2021/01/15 05:18:13;;;;;;;18.43;9.60;;;-5.70;84.70;;;;;;5059951;28;20473;-82
2021/01/15 05:20:41;;;;;;;13.90;7.53;;;-5.70;84.80;;;;;;5065474;28;20456;-81
2021/01/15 05:23:09;;;;;;;15.10;8.23;;;-5.70;84.50;;;;;;5051490;28;21464;-82
2021/01/15 05:25:43;;;;;;;15.73;8.27;;;-5.80;84.70;;;;;;5027759;28;20472;-81
2021/01/15 05:28:15;;;;;;;14.40;8.93;;;-5.80;84.80;;;;;;5044648;28;20760;-81
2021/01/15 05:30:43;;;;;;;15.93;8.33;;;-5.80;85.00;;;;;;5042965;28;20879;-80
2021/01/15 05:33:14;;;;;;;16.90;8.47;;;-5.80;85.10;;;;;;5034911;28;20774;-82
2021/01/15 05:35:44;;;;;;;14.27;7.83;;;-5.80;85.10;;;;;;5033623;28;20460;-80
2021/01/15 05:38:14;;;;;;;12.67;8.27;;;-5.80;85.20;;;;;;5034783;28;20447;-80
2021/01/15 05:40:44;;;;;;;14.47;8.37;;;-5.80;85.20;;;;;;5038556;28;20457;-80
2021/01/15 05:43:25;;;;;;;14.03;8.70;;;-5.90;85.10;;;;;;5022006;28;21227;-80
2021/01/15 05:46:08;;;;;;;14.63;8.53;;;-5.80;85.30;;;;;;5021556;28;21058;-80
2021/01/15 05:48:43;;;;;;;14.93;8.97;;;-5.80;85.10;;;;;;5036698;28;20491;-81
2021/01/15 05:51:22;;;;;;;12.10;7.77;;;-5.80;85.10;;;;;;5026277;28;20511;-82
2021/01/15 05:53:51;;;;;;;16.07;8.77;;;-5.80;85.30;;;;;;5036911;28;20494;-82
2021/01/15 05:56:19;;;;;;;15.37;8.73;;;-5.80;85.50;;;;;;5040373;28;20465;-81
2021/01/15 05:59:02;;;;;;;17.07;8.73;;;-5.70;85.40;;;;;;5043839;28;20952;-80
2021/01/15 06:01:40;;;;;;;16.00;7.97;;;-5.70;85.70;;;;;;5051345;28;20500;-79
2021/01/15 06:04:10;;;;;;;14.47;9.37;;;-5.60;85.90;;;;;;5046873;28;20995;-82
2021/01/15 06:06:39;;;;;;;13.20;7.90;;;-5.60;85.60;;;;;;5047855;28;20456;-81
2021/01/15 06:09:08;;;;;;;13.33;8.40;;;-5.60;85.60;;;;;;5055033;28;20954;-82
2021/01/15 06:11:36;;;;;;;12.93;8.90;;;-5.70;85.70;;;;;;5047911;28;20468;-81
2021/01/15 06:14:16;;;;;;;16.87;9.00;;;-5.60;85.20;;;;;;5038585;28;20551;-80
2021/01/15 06:16:44;;;;;;;14.07;8.20;;;-5.60;85.20;;;;;;5053774;28;20461;-81
2021/01/15 06:19:14;;;;;;;14.00;8.47;;;-5.50;85.50;;;;;;5054744;28;20484;-80
2021/01/15 06:21:53;;;;;;;16.47;8.63;;;-5.50;85.60;;;;;;5050212;28;20451;-82
2021/01/15 06:24:23;;;;;;;15.20;7.57;;;-5.50;85.40;;;;;;5038296;28;20484;-81
2021/01/15 06:27:05;;;;;;;16.13;9.10;;;-5.50;85.30;;;;;;5039012;28;21139;-80
2021/01/15 06:29:42;;;;;;;15.40;9.23;;;-5.50;85.10;;;;;;5032373;28;20499;-80
2021/01/15 06:32:11;;;;;;;15.20;9.07;;;-5.50;84.80;;;;;;5042569;28;20440;-81
2021/01/15 06:34:49;;;;;;;17.27;9.00;;;-5.40;85.10;;;;;;5027814;28;20811;-81
2021/01/15 06:37:21;;;;;;;12.77;7.90;;;-5.50;85.10;;;;;;5023517;28;20548;-81
2021/01/15 06:40:04;;;;;;;14.60;9.00;;;-5.40;85.30;;;;;;5024889;28;20472;-81
2021/01/15 06:42:42;;;;;;;16.43;8.87;;;-5.30;85.40;;;;;;5030051;28;22040;-81
2021/01/15 06:45:13;;;;;;;15.20;8.80;;;-5.40;85.10;;;;;;5046378;28;20484;-80
2021/01/15 06:47:42;;;;;;;15.70;8.90;;;-5.40;85.10;;;;;;5047222;28;20455;-80
2021/01/15 06:50:18;;;;;;;18.90;9.70;;;-5.40;85.20;;;;;;5029129;28;20564;-79
2021/01/15 06:52:50;;;;;;;17.00;8.60;;;-5.40;85.10;;;;;;5019037;28;20481;-81
2021/01/15 06:55:20;;;;;;;10.67;4.97;;;-5.30;84.90;;;;;;5017310;28;20465;-83
2021/01/15 06:57:49;;;;;;;18.10;9.07;;;-5.30;84.70;;;;;;5018948;28;20468;-81
2021/01/15 07:00:23;;;;;;;15.27;8.77;;;-5.30;84.60;;;;;;5012844;28;20816;-81
2021/01/15 07:03:19;;;;;;;17.17;8.80;;;-5.30;84.70;;;;;;5016883;28;21011;-81
2021/01/15 07:05:47;;;;;;;17.83;8.63;;;-5.20;84.80;;;;;;5027331;28;20796;-80
2021/01/15 07:08:16;;;;;;;14.53;9.30;;;-5.30;84.80;;;;;;5011829;28;20531;-80
2021/01/15 07:10:46;;;;;;;16.13;9.07;;;-5.30;85.00;;;;;;5029651;28;20488;-80
2021/01/15 07:13:21;;;;;;;17.27;9.50;;;-5.20;85.10;;;;;;5017388;28;20467;-81
2021/01/15 07:15:54;;;;;;;15.87;9.27;;;-5.20;85.30;;;;;;5029568;28;21103;-80
2021/01/15 07:18:46;;;;;;;17.77;9.53;;;-5.10;85.20;;;;;;5020448;28;20717;-80
2021/01/15 07:21:22;;;;;;;13.47;8.53;;;-5.10;85.30;;;;;;5020143;28;20514;-82
2021/01/15 07:23:55;;;;;;;12.87;8.33;;;-5.10;84.60;;;;;;5023631;28;20466;-80
2021/01/15 07:26:23;;;;;;;15.10;8.33;;;-5.00;84.60;;;;;;5016530;28;20469;-82
2021/01/15 07:28:58;;;;;;;14.07;8.60;;;-5.00;84.60;;;;;;5021843;28;20768;-80
2021/01/15 07:31:28;;;;;;;15.20;9.27;;;-4.90;84.30;;;;;;5017222;28;20496;-80
2021/01/15 07:33:59;;;;;;;15.93;9.43;;;-4.90;84.40;;;;;;5023679;28;20460;-81
2021/01/15 07:36:35;;;;;;;15.27;8.23;;;-4.90;84.30;;;;;;5021781;28;20470;-80
2021/01/15 07:39:08;;;;;;;15.83;8.83;;;-4.90;84.00;;;;;;5026173;28;20198;-80
2021/01/15 07:41:40;;;;;;;15.67;9.10;;;-4.80;84.10;;;;;;5025279;28;21037;-82
2021/01/15 07:44:37;;;;;;;16.37;9.13;;;-4.80;84.00;;;;;;5021975;28;20560;-79
2021/01/15 07:47:11;;;;;;;13.87;9.33;;;-4.80;84.10;;;;;;5013151;28;20543;-80
2021/01/15 07:49:47;;;;;;;14.73;8.93;;;-4.70;84.00;;;;;;5022975;28;20532;-80
2021/01/15 07:52:16;;;;;;;18.13;9.20;;;-4.70;84.10;;;;;;5019954;28;20799;-82
2021/01/15 07:55:02;;;;;;;18.53;10.07;;;-4.70;84.00;;;;;;5016226;28;20477;-82
2021/01/15 07:57:32;;;;;;;18.10;9.60;;;-4.60;84.40;;;;;;5019335;28;20502;-80
2021/01/15 08:00:23;;;;;;;14.17;9.70;;;-4.50;84.50;;;;;;5013462;28;20486;-80
2021/01/15 08:02:59;;;;;;;16.97;9.50;;;-4.40;84.30;;;;;;5020768;28;20329;-81
2021/01/15 08:05:27;;;;;;;15.73;9.27;;;-4.40;84.00;;;;;;5010358;28;21013;-81
2021/01/15 08:08:06;;;;;;;16.67;9.63;;;-4.30;83.50;;;;;;5008640;28;20538;-81
2021/01/15 08:10:44;;;;;;;16.07;8.90;;;-4.20;83.80;;;;;;4999174;28;20306;-81
2021/01/15 08:13:21;;;;;;;19.77;9.27;;;-4.20;83.30;;;;;;5036119;28;20312;-82
2021/01/15 08:15:51;;;;;;;14.63;8.97;;;-4.20;83.30;;;;;;5032937;28;20264;-81
2021/01/15 08:18:21;;;;;;;15.80;9.70;;;-4.20;83.40;;;;;;5019440;28;20531;-81
2021/01/15 08:20:51;;;;;;;16.07;9.63;;;-4.20;83.50;;;;;;5012491;28;20532;-81
2021/01/15 08:23:21;;;;;;;16.60;9.47;;;-4.10;83.60;;;;;;5025174;28;20953;-80
2021/01/15 08:26:27;;;;;;;14.53;8.57;;;-4.10;83.20;;;;;;5009208;28;20474;-81
2021/01/15 08:28:56;;;;;;;16.30;9.10;;;-4.10;82.80;;;;;;5015882;28;20204;-81
2021/01/15 08:31:26;;;;;;;15.40;8.33;;;-4.10;82.80;;;;;;5013104;28;20232;-82
2021/01/15 08:34:08;;;;;;;13.47;9.10;;;-4.10;82.80;;;;;;4994705;28;20240;-80
2021/01/15 08:36:40;;;;;;;15.53;9.40;;;-3.90;82.90;;;;;;5016261;28;20772;-79
2021/01/15 08:39:09;;;;;;;17.17;9.43;;;-3.80;83.00;;;;;;5016547;28;20368;-80
2021/01/15 08:41:37;;;;;;;17.33;10.03;;;-3.70;82.60;;;;;;5010200;28;20743;-79
2021/01/15 08:44:05;;;;;;;17.00;9.07;;;-3.60;82.50;;;;;;5004654;28;20428;-81
2021/01/15 08:46:34;;;;;;;18.10;9.47;;;-3.60;82.60;;;;;;5008475;28;20218;-81
2021/01/15 08:49:08;;;;;;;17.53;9.13;;;-3.40;82.70;;;;;;5015838;28;20202;-79
2021/01/15 08:51:38;;;;;;;14.77;9.43;;;-3.60;82.10;;;;;;4938402;28;20378;-81
2021/01/15 08:54:12;;;;;;;15.63;9.40;;;-3.60;82.00;;;;;;4981855;28;20550;-82
2021/01/15 08:56:41;;;;;;;14.90;7.87;;;-3.60;81.80;;;;;;5016039;28;20922;-80
2021/01/15 08:59:11;;;;;;;16.87;9.67;;;-3.50;82.00;;;;;;5008275;28;20596;-80
2021/01/15 09:01:41;;;;;;;14.93;9.33;;;-3.60;81.80;;;;;;5016232;28;20674;-80
2021/01/15 09:04:10;;;;;;;15.47;8.93;;;-3.50;81.90;;;;;;5008864;28;20469;-80
2021/01/15 09:06:39;;;;;;;19.03;9.70;;;-3.40;82.10;;;;;;5014480;28;20220;-82
2021/01/15 09:09:08;;;;;;;15.87;8.37;;;-3.40;81.90;;;;;;5015644;28;20202;-81
2021/01/15 09:11:38;;;;;;;18.87;10.13;;;-3.40;81.70;;;;;;4995186;28;20233;-82
2021/01/15 09:14:12;;;;;;;17.90;9.43;;;-3.30;81.50;;;;;;5016392;28;20210;-79
2021/01/15 09:16:42;;;;;;;13.90;9.10;;;-3.40;81.20;;;;;;5017483;28;20554;-82
2021/01/15 09:19:12;;;;;;;20.70;10.80;;;-3.50;81.40;;;;;;5011840;28;20660;-78
2021/01/15 09:21:49;;;;;;;17.73;9.50;;;-3.50;81.60;;;;;;5011224;28;20711;-80
2021/01/15 09:24:18;;;;;;;19.57;10.43;;;-3.50;81.70;;;;;;5013841;28;20222;-80
2021/01/15 09:26:54;;;;;;;21.00;11.40;;;-3.50;82.00;;;;;;5025840;28;20206;-80
2021/01/15 09:29:22;;;;;;;19.63;10.37;;;-3.50;81.80;;;;;;5026006;28;20339;-82
2021/01/15 09:31:50;;;;;;;20.80;12.50;;;-3.50;81.70;;;;;;5034873;28;20290;-80
2021/01/15 09:34:19;;;;;;;21.80;12.40;;;-3.30;81.70;;;;;;5019625;28;20739;-80
2021/01/15 09:36:48;;;;;;;20.67;13.33;;;-3.40;81.90;;;;;;5023688;28;20373;-81
2021/01/15 09:39:18;;;;;;;25.73;12.97;;;-3.30;82.20;;;;;;5025084;28;20400;-81
2021/01/15 09:41:51;;;;;;;23.90;14.57;;;-3.30;81.70;;;;;;5038518;28;20248;-82
2021/01/15 09:44:21;;;;;;;25.00;14.13;;;-3.20;81.70;;;;;;5034181;28;20186;-79
2021/01/15 09:46:50;;;;;;;25.97;15.80;;;-3.10;81.60;;;;;;5044182;28;20209;-80
2021/01/15 09:49:22;;;;;;;26.57;15.53;;;-3.10;81.50;;;;;;5037242;28;20512;-82
2021/01/15 09:51:51;;;;;;;23.33;15.17;;;-3.00;81.60;;;;;;5013474;28;20222;-81
2021/01/15 09:54:18;;;;;;;28.10;15.37;;;-3.10;81.50;;;;;;5007738;28;20620;-81
2021/01/15 09:56:47;;;;;;;25.50;14.97;;;-3.10;81.60;;;;;;5014082;28;20206;-80
2021/01/15 09:59:20;;;;;;;23.30;14.77;;;-3.10;81.60;;;;;;5008159;28;20214;-82
2021/01/15 10:01:49;;;;;;;26.03;14.43;;;-3.20;81.40;;;;;;5022530;28;20210;-80
2021/01/15 10:04:19;;;;;;;26.23;14.63;;;-3.00;81.80;;;;;;5011505;28;20434;-80
2021/01/15 10:06:47;;;;;;;25.93;14.07;;;-3.00;81.40;;;;;;5011792;28;20213;-81
2021/01/15 10:09:16;;;;;;;23.40;14.03;;;-3.10;81.40;;;;;;5006386;28;20268;-80
2021/01/15 10:11:46;;;;;;;31.53;15.93;;;-3.10;81.80;;;;;;5021577;28;20301;-82
2021/01/15 10:14:16;;;;;;;24.87;14.43;;;-3.20;81.70;;;;;;5009832;28;20301;-83
2021/01/15 10:16:47;;;;;;;19.83;12.60;;;-3.00;82.40;;;;;;5012847;28;20289;-81
2021/01/15 10:19:15;;;;;;;22.77;14.47;;;-3.00;81.40;;;;;;5009968;28;20232;-81
2021/01/15 10:21:44;;;;;;;21.27;13.93;;;-3.00;81.30;;;;;;5010915;28;20353;-80
2021/01/15 10:24:13;;;;;;;24.93;15.93;;;-3.10;81.10;;;;;;5008742;28;20528;-79
2021/01/15 10:26:41;;;;;;;23.43;14.27;;;-3.10;81.10;;;;;;5005729;28;20210;-82
2021/01/15 10:29:11;;;;;;;23.33;13.80;;;-3.20;81.20;;;;;;5012023;28;20222;-81
2021/01/15 10:31:44;;;;;;;20.70;13.00;;;-3.10;81.40;;;;;;5012585;28;20225;-82
2021/01/15 10:34:12;;;;;;;18.80;10.73;;;-3.20;81.10;;;;;;5011203;28;20276;-80
2021/01/15 10:36:41;;;;;;;16.87;10.60;;;-3.10;81.00;;;;;;5007438;28;20631;-84
2021/01/15 10:39:09;;;;;;;27.67;14.23;;;-3.00;80.80;;;;;;4994416;28;20240;-81
2021/01/15 10:41:38;;;;;;;22.70;13.27;;;-3.00;81.00;;;;;;5007746;28;20594;-83
2021/01/15 10:44:09;;;;;;;23.30;12.97;;;-2.90;81.00;;;;;;5010767;28;20202;-82
2021/01/15 10:46:38;;;;;;;19.33;12.13;;;-2.80;80.30;;;;;;5008250;28;20406;-81
2021/01/15 10:49:08;;;;;;;17.77;12.10;;;-2.60;80.60;;;;;;5012809;28;20222;-80
2021/01/15 10:51:39;;;;;;;19.30;10.93;;;-2.50;80.50;;;;;;5011098;28;20615;-83
2021/01/15 10:54:08;;;;;;;26.07;12.87;;;-2.40;80.00;;;;;;5003773;28;20856;-80
2021/01/15 10:56:36;;;;;;;21.80;12.20;;;-2.40;80.00;;;;;;5009371;28;20583;-80
2021/01/15 10:59:05;;;;;;;23.83;12.17;;;-2.30;80.00;;;;;;5014059;28;20202;-82
2021/01/15 11:01:36;;;;;;;17.90;10.97;;;-2.10;80.00;;;;;;5014719;28;20202;-79
2021/01/15 11:04:08;;;;;;;20.90;10.13;;;-2.10;79.50;;;;;;5023730;28;20206;-82
2021/01/15 11:06:37;;;;;;;17.97;10.90;;;-2.00;78.90;;;;;;5039479;28;20225;-83
2021/01/15 11:09:06;;;;;;;21.93;10.97;;;-1.80;78.90;;;;;;5038240;28;20639;-82
2021/01/15 11:11:56;;;;;;;19.77;12.50;;;-1.80;78.50;;;;;;5017641;28;20307;-79
2021/01/15 11:14:24;;;;;;;23.43;10.10;;;-1.90;78.40;;;;;;5021408;28;20266;-83
2021/01/15 11:16:54;;;;;;;16.27;10.20;;;-1.90;78.50;;;;;;5010193;28;20723;-82
2021/01/15 11:19:27;;;;;;;18.83;11.73;;;-2.00;78.10;;;;;;5022999;28;20213;-84
2021/01/15 11:21:55;;;;;;;21.03;11.30;;;-2.20;78.60;;;;;;5020305;28;20666;-82
2021/01/15 11:24:24;;;;;;;19.77;10.13;;;-2.10;78.70;;;;;;5002563;28;20214;-84
2021/01/15 11:26:52;;;;;;;19.33;11.53;;;-2.10;78.60;;;;;;5010739;28;20218;-84
2021/01/15 11:29:20;;;;;;;17.07;9.83;;;-2.20;78.60;;;;;;5018582;28;20713;-83
2021/01/15 11:31:50;;;;;;;20.20;11.63;;;-2.20;78.50;;;;;;5028174;28;20222;-82
2021/01/15 11:34:20;;;;;;;17.30;11.30;;;-2.20;78.60;;;;;;5039447;28;20195;-84
2021/01/15 11:36:50;;;;;;;21.33;12.07;;;-2.20;79.40;;;;;;5031872;28;20610;-85
2021/01/15 11:39:23;;;;;;;20.20;12.27;;;-2.20;79.20;;;;;;5024231;28;20203;-84
2021/01/15 11:41:55;;;;;;;22.13;12.60;;;-2.20;79.30;;;;;;5015152;28;20212;-83
2021/01/15 11:44:26;;;;;;;21.43;11.77;;;-2.40;79.80;;;;;;5032159;28;20213;-84
2021/01/15 11:46:57;;;;;;;23.23;12.47;;;-2.40;79.60;;;;;;5040298;28;20198;-84
2021/01/15 11:49:31;;;;;;;20.83;12.60;;;-2.50;80.20;;;;;;5024257;28;20196;-83
2021/01/15 11:52:07;;;;;;;23.37;12.90;;;-2.40;80.30;;;;;;5022047;28;20226;-83
2021/01/15 11:54:36;;;;;;;19.30;11.33;;;-2.40;80.70;;;;;;5028101;28;20210;-83
2021/01/15 11:57:04;;;;;;;20.40;11.90;;;-2.50;80.40;;;;;;5037152;28;20405;-81
2021/01/15 11:59:32;;;;;;;19.17;12.60;;;-2.30;80.70;;;;;;5042350;28;20205;-82
2021/01/15 12:02:01;;;;;;;19.63;11.47;;;-2.30;80.60;;;;;;5046755;28;20192;-84
2021/01/15 12:04:28;;;;;;;21.13;12.43;;;-2.30;80.40;;;;;;5045358;28;20202;-83
2021/01/15 12:06:57;;;;;;;22.33;12.30;;;-2.20;81.10;;;;;;5041521;28;20300;-83
2021/01/15 12:09:30;;;;;;;20.10;11.70;;;-2.10;81.40;;;;;;5045759;28;20451;-83
2021/01/15 12:12:00;;;;;;;20.20;12.53;;;-2.10;81.40;;;;;;5023510;28;20268;-84
2021/01/15 12:14:30;;;;;;;20.57;12.07;;;-2.10;81.50;;;;;;5288806;22;20584;-84
2021/01/15 12:17:01;;;;;;;20.40;12.03;;;-2.20;81.20;;;;;;5093617;28;20553;-82
2021/01/15 12:19:32;;;;;;;20.97;12.03;;;-2.30;81.70;;;;;;5118140;27;20536;-82
2021/01/15 12:22:00;;;;;;;20.03;12.63;;;-2.30;82.10;;;;;;5105757;28;20925;-82
2021/01/15 12:27:15;;;;;;;17.67;11.87;;;-2.20;82.90;;;;;;5102513;28;20211;-85
2021/01/15 12:29:46;;;;;;;20.20;12.83;;;-2.40;83.10;;;;;;5091350;28;20185;-88
2021/01/15 12:35:14;;;;;;;23.90;12.83;;;-2.40;83.00;;;;;;5001017;28;20211;-87
2021/01/15 12:37:43;;;;;;;21.97;12.43;;;-2.50;83.30;;;;;;5004847;28;20180;-84
2021/01/15 12:40:16;;;;;;;23.10;13.00;;;-2.60;84.00;;;;;;5001435;28;20208;-84
2021/01/15 12:42:54;;;;;;;21.87;12.97;;;-2.80;84.10;;;;;;5001446;28;20180;-84
2021/01/15 12:45:28;;;;;;;23.93;12.93;;;-2.80;85.10;;;;;;4996721;28;20722;-81
2021/01/15 12:47:59;;;;;;;19.70;11.20;;;-2.80;85.90;;;;;;4999925;28;20196;-83
2021/01/15 12:50:33;;;;;;;21.73;13.03;;;-2.80;86.20;;;;;;4996004;28;20224;-84
2021/01/15 12:53:12;;;;;;;24.37;14.00;;;-2.90;86.30;;;;;;4977586;28;20204;-81
2021/01/15 12:55:41;;;;;;;20.53;12.67;;;-2.90;86.60;;;;;;4981310;28;20484;-83
2021/01/15 12:58:10;;;;;;;21.27;12.53;;;-2.90;86.70;;;;;;4987495;28;20519;-80
2021/01/15 13:00:39;;;;;;;23.20;14.03;;;-2.90;86.90;;;;;;4968246;28;20208;-81